Погода Помориена 2 недели

Бургас, Болгария

20 июня-03 июля
  • 20июня
    Сегодня
    +23°
    +29°
    Ясно и безоблачно
    ВремяПогодаТемператураВлажностьДавлениеВетер, м/сВероятность осадков
    00:00Ясно и безоблачно+22°C86 %763 мм2.9 м/с2 %
    03:00Ясно и безоблачно+19°C80 %763 мм1.8 м/с2 %
    06:00Ясно и безоблачно+20°C84 %763 мм1.5 м/с2 %
    09:00Ясно и безоблачно+21°C62 %763 мм2.0 м/с2 %
    12:00Ясно и безоблачно+27°C60 %763 мм2.8 м/с2 %
    15:00Ясно и безоблачно+28°C57 %762 мм8.7 м/с2 %
    18:00Ясно и безоблачно+28°C62 %761 мм9.5 м/с2 %
    21:00Ясно и безоблачно+26°C74 %762 мм5.6 м/с2 %
  • 21июня
    Пятница
    +19°
    +26°
    Ясно и безоблачно
    ВремяПогодаТемператураВлажностьДавлениеВетер, м/сВероятность осадков
    00:00Ясно и безоблачно+25°C78 %762 мм4.1 м/с2 %
    03:00Ясно и безоблачно+24°C79 %763 мм4.6 м/с2 %
    06:00Ясно и безоблачно+23°C77 %763 мм5.9 м/с2 %
    09:00Ясно и безоблачно+24°C76 %764 мм8.6 м/с2 %
    12:00Ясно и безоблачно+26°C66 %764 мм8.0 м/с2 %
    15:00Ясно и безоблачно+24°C64 %763 мм10.7 м/с2 %
    18:00Ясно и безоблачно+24°C61 %762 мм10.2 м/с2 %
    21:00Ясно и безоблачно+23°C66 %762 мм7.4 м/с2 %
  • 22июня
    Суббота
    +18°
    +25°
    Ясно и безоблачно
    ВремяПогодаТемператураВлажностьДавлениеВетер, м/сВероятность осадков
    00:00Ясно и безоблачно+22°C75 %762 мм4.1 м/с2 %
    03:00Ясно и безоблачно+21°C82 %761 мм2.3 м/с2 %
    06:00Ясно и безоблачно+19°C87 %761 мм2.2 м/с2 %
    09:00Ясно и безоблачно+21°C72 %761 мм4.4 м/с2 %
    12:00Ясно и безоблачно+24°C65 %761 мм6.0 м/с2 %
    15:00Ясно и безоблачно+24°C61 %760 мм10.3 м/с2 %
    18:00Ясно и безоблачно+23°C62 %759 мм9.6 м/с2 %
    21:00Ясно и безоблачно+23°C72 %759 мм6.4 м/с2 %
  • 23июня
    Воскресенье
    +18°
    +26°
    Ясно и безоблачно
    ВремяПогодаТемператураВлажностьДавлениеВетер, м/сВероятность осадков
    00:00Ясно и безоблачно+22°C81 %759 мм3.7 м/с2 %
    03:00Ясно и безоблачно+21°C87 %758 мм2.0 м/с2 %
    06:00Ясно и безоблачно+19°C87 %758 мм1.1 м/с2 %
    09:00Ясно и безоблачно+22°C67 %759 мм2.1 м/с2 %
    12:00Ясно и безоблачно+26°C60 %759 мм5.5 м/с2 %
    15:00Ясно и безоблачно+25°C60 %759 мм10.1 м/с2 %
    18:00Ясно и безоблачно+24°C64 %758 мм10.0 м/с2 %
    21:00Ясно и безоблачно+24°C71 %759 мм6.6 м/с2 %
  • 24июня
    Понедельник
    +21°
    +27°
    Ясно и безоблачно
    ВремяПогодаТемператураВлажностьДавлениеВетер, м/сВероятность осадков
    00:00Ясно и безоблачно+23°C82 %758 мм2.7 м/с2 %
    03:00Ясно и безоблачно+21°C86 %758 мм2.1 м/с2 %
    06:00Небольшая облачность+19°C91 %758 мм1.3 м/с2 %
    09:00Ясно и безоблачно+22°C78 %759 мм2.5 м/с2 %
    12:00Ясно и безоблачно+26°C58 %760 мм6.4 м/с2 %
    15:00Ясно и безоблачно+26°C54 %759 мм10.9 м/с2 %
    18:00Ясно и безоблачно+26°C58 %759 мм9.6 м/с2 %
    21:00Ясно и безоблачно+25°C69 %759 мм6.4 м/с2 %
Мы используем cookies
Соглашаюсь